CPA94 RCTP-VHHX
Flight info
| Callsign | CPA94 |
|---|---|
| Flight time | 1h 17m |
| Altitude | 40000 |
| Route | CHALI1A CHALI T3 MKG A1 ELATO |
| Aircraft | A359/H-SDE2E3GHIJ3J4J5LM1ORWXY/LB1D1 |
Departure
| Time | 2026-05-08 11:26 |
|---|---|
| Airport | Taiwan Taoyuan International Airport (RCTP) |
Arrival
| Time | 2026-05-08 12:44 |
|---|---|
| Airport | Hong Kong International Airport Kai Tak (VHHX) |
| Time | Latitude | Longitude | Altitude | Speed | Heading |
|---|---|---|---|---|---|
| 2026-05-08 11:01 | 25.07882 | 121.23780 | 107 ft | 0 kts | 319° |
| 2026-05-08 11:15 | 25.07879 | 121.23782 | 107 ft | 3 kts | 319° |
| 2026-05-08 11:15 | 25.07859 | 121.23801 | 106 ft | 4 kts | 319° |
| 2026-05-08 11:15 | 25.07839 | 121.23821 | 104 ft | 4 kts | 319° |
| 2026-05-08 11:16 | 25.07820 | 121.23841 | 104 ft | 4 kts | 306° |
| 2026-05-08 11:16 | 25.07807 | 121.23867 | 104 ft | 4 kts | 284° |
| 2026-05-08 11:16 | 25.07806 | 121.23894 | 104 ft | 4 kts | 247° |
| 2026-05-08 11:16 | 25.07811 | 121.23905 | 105 ft | 1 kts | 229° |
| 2026-05-08 11:18 | 25.07810 | 121.23904 | 105 ft | 1 kts | 229° |
| 2026-05-08 11:19 | 25.07789 | 121.23877 | 105 ft | 9 kts | 229° |
| 2026-05-08 11:19 | 25.07724 | 121.23793 | 105 ft | 19 kts | 229° |
| 2026-05-08 11:19 | 25.07613 | 121.23711 | 107 ft | 13 kts | 175° |
| 2026-05-08 11:19 | 25.07537 | 121.23761 | 105 ft | 14 kts | 146° |
| 2026-05-08 11:20 | 25.07456 | 121.23761 | 104 ft | 11 kts | 211° |
| 2026-05-08 11:20 | 25.07400 | 121.23702 | 105 ft | 13 kts | 227° |
| 2026-05-08 11:20 | 25.07333 | 121.23619 | 105 ft | 17 kts | 229° |
| 2026-05-08 11:20 | 25.07238 | 121.23500 | 106 ft | 24 kts | 229° |
| 2026-05-08 11:21 | 25.07116 | 121.23344 | 106 ft | 30 kts | 229° |
| 2026-05-08 11:21 | 25.06966 | 121.23154 | 104 ft | 36 kts | 229° |
| 2026-05-08 11:21 | 25.06798 | 121.22942 | 105 ft | 41 kts | 229° |
| 2026-05-08 11:21 | 25.06608 | 121.22699 | 105 ft | 37 kts | 229° |
| 2026-05-08 11:22 | 25.06506 | 121.22570 | 106 ft | 21 kts | 229° |
| 2026-05-08 11:22 | 25.06406 | 121.22442 | 104 ft | 23 kts | 229° |
| 2026-05-08 11:22 | 25.06296 | 121.22302 | 105 ft | 25 kts | 230° |
| 2026-05-08 11:22 | 25.06211 | 121.22260 | 106 ft | 9 kts | 162° |
| 2026-05-08 11:23 | 25.06179 | 121.22280 | 104 ft | 0 kts | 141° |
| 2026-05-08 11:23 | 25.06177 | 121.22282 | 104 ft | 0 kts | 141° |
| 2026-05-08 11:23 | 25.06174 | 121.22285 | 106 ft | 1 kts | 137° |
| 2026-05-08 11:23 | 25.06154 | 121.22305 | 106 ft | 7 kts | 137° |
| 2026-05-08 11:24 | 25.06118 | 121.22360 | 104 ft | 8 kts | 104° |
| 2026-05-08 11:24 | 25.06131 | 121.22404 | 104 ft | 5 kts | 62° |
| 2026-05-08 11:24 | 25.06153 | 121.22441 | 104 ft | 6 kts | 50° |
| 2026-05-08 11:24 | 25.06154 | 121.22442 | 104 ft | 0 kts | 50° |
| 2026-05-08 11:25 | 25.06167 | 121.22459 | 104 ft | 20 kts | 50° |
| 2026-05-08 11:26 | 25.06423 | 121.22785 | 103 ft | 89 kts | 49° |
| 2026-05-08 11:26 | 25.06957 | 121.23463 | 105 ft | 143 kts | 48° |
| 2026-05-08 11:26 | 25.07534 | 121.24209 | 886 ft | 127 kts | 49° |
| 2026-05-08 11:26 | 25.08175 | 121.25032 | 1327 ft | 153 kts | 49° |
| 2026-05-08 11:27 | 25.08937 | 121.26011 | 1649 ft | 182 kts | 50° |
| 2026-05-08 11:27 | 25.09796 | 121.27092 | 2197 ft | 191 kts | 47° |
| 2026-05-08 11:27 | 25.10902 | 121.27944 | 2832 ft | 200 kts | 26° |
| 2026-05-08 11:27 | 25.12324 | 121.28124 | 3409 ft | 220 kts | 356° |
| 2026-05-08 11:28 | 25.13799 | 121.27392 | 3683 ft | 254 kts | 327° |
| 2026-05-08 11:28 | 25.15207 | 121.26086 | 4166 ft | 271 kts | 323° |
| 2026-05-08 11:28 | 25.16635 | 121.24685 | 4859 ft | 278 kts | 321° |
| 2026-05-08 11:28 | 25.18100 | 121.23260 | 5563 ft | 283 kts | 319° |
| 2026-05-08 11:29 | 25.19583 | 121.21833 | 6468 ft | 280 kts | 318° |
| 2026-05-08 11:29 | 25.21058 | 121.20443 | 7400 ft | 277 kts | 316° |
| 2026-05-08 11:29 | 25.22483 | 121.19001 | 8235 ft | 277 kts | 308° |
| 2026-05-08 11:29 | 25.23538 | 121.17248 | 9072 ft | 275 kts | 292° |
| 2026-05-08 11:30 | 25.23956 | 121.15198 | 9844 ft | 276 kts | 269° |
| 2026-05-08 11:30 | 25.23545 | 121.13116 | 10403 ft | 286 kts | 245° |
| 2026-05-08 11:30 | 25.22367 | 121.11262 | 10751 ft | 306 kts | 229° |
| 2026-05-08 11:30 | 25.20808 | 121.09598 | 11046 ft | 325 kts | 223° |
| 2026-05-08 11:31 | 25.18995 | 121.07981 | 11339 ft | 342 kts | 221° |
| 2026-05-08 11:31 | 25.17068 | 121.06365 | 11821 ft | 350 kts | 220° |
| 2026-05-08 11:31 | 25.15142 | 121.04752 | 12638 ft | 348 kts | 221° |
| 2026-05-08 11:31 | 25.13222 | 121.03093 | 13244 ft | 354 kts | 220° |
| 2026-05-08 11:32 | 25.11288 | 121.01368 | 13781 ft | 359 kts | 221° |
| 2026-05-08 11:32 | 25.09341 | 120.99597 | 14275 ft | 363 kts | 223° |
| 2026-05-08 11:32 | 25.07406 | 120.97827 | 14970 ft | 362 kts | 222° |
| 2026-05-08 11:32 | 25.05452 | 120.96023 | 15417 ft | 368 kts | 222° |
| 2026-05-08 11:33 | 25.03492 | 120.94209 | 15828 ft | 375 kts | 222° |
| 2026-05-08 11:33 | 25.01479 | 120.92357 | 16394 ft | 375 kts | 222° |
| 2026-05-08 11:33 | 24.99483 | 120.90523 | 17045 ft | 376 kts | 222° |
| 2026-05-08 11:33 | 24.97452 | 120.88657 | 17448 ft | 382 kts | 222° |
| 2026-05-08 11:34 | 24.95411 | 120.86785 | 18099 ft | 380 kts | 224° |
| 2026-05-08 11:34 | 24.93385 | 120.84919 | 18631 ft | 382 kts | 222° |
| 2026-05-08 11:34 | 24.91317 | 120.83008 | 18842 ft | 392 kts | 222° |
| 2026-05-08 11:34 | 24.89221 | 120.81090 | 19370 ft | 390 kts | 224° |
| 2026-05-08 11:35 | 24.87123 | 120.79162 | 19748 ft | 396 kts | 222° |
| 2026-05-08 11:35 | 24.84991 | 120.77208 | 20200 ft | 397 kts | 223° |
| 2026-05-08 11:35 | 24.82871 | 120.75275 | 20849 ft | 394 kts | 223° |
| 2026-05-08 11:35 | 24.80754 | 120.73338 | 21226 ft | 400 kts | 222° |
| 2026-05-08 11:36 | 24.78606 | 120.71376 | 21712 ft | 400 kts | 223° |
| 2026-05-08 11:36 | 24.76455 | 120.69404 | 22152 ft | 404 kts | 224° |
| 2026-05-08 11:36 | 24.74293 | 120.67422 | 22645 ft | 406 kts | 222° |
| 2026-05-08 11:36 | 24.72132 | 120.65447 | 23057 ft | 408 kts | 223° |
| 2026-05-08 11:37 | 24.69936 | 120.63440 | 23450 ft | 413 kts | 223° |
| 2026-05-08 11:37 | 24.67705 | 120.61396 | 23712 ft | 419 kts | 223° |
| 2026-05-08 11:37 | 24.65462 | 120.59350 | 24180 ft | 417 kts | 223° |
| 2026-05-08 11:37 | 24.63209 | 120.57295 | 24445 ft | 424 kts | 223° |
| 2026-05-08 11:38 | 24.60941 | 120.55227 | 24914 ft | 423 kts | 224° |
| 2026-05-08 11:38 | 24.58666 | 120.53151 | 25301 ft | 427 kts | 224° |
| 2026-05-08 11:38 | 24.56380 | 120.51037 | 25593 ft | 432 kts | 226° |
| 2026-05-08 11:38 | 24.54307 | 120.48704 | 26072 ft | 430 kts | 232° |
| 2026-05-08 11:39 | 24.52359 | 120.46208 | 26504 ft | 432 kts | 233° |
| 2026-05-08 11:39 | 24.50463 | 120.43647 | 26937 ft | 433 kts | 235° |
| 2026-05-08 11:39 | 24.48587 | 120.41039 | 27368 ft | 436 kts | 236° |
| 2026-05-08 11:39 | 24.46718 | 120.38412 | 27841 ft | 437 kts | 236° |
| 2026-05-08 11:40 | 24.44842 | 120.35770 | 28262 ft | 440 kts | 236° |
| 2026-05-08 11:40 | 24.42944 | 120.33106 | 28664 ft | 443 kts | 236° |
| 2026-05-08 11:40 | 24.41029 | 120.30429 | 29052 ft | 446 kts | 236° |
| 2026-05-08 11:40 | 24.39101 | 120.27743 | 29482 ft | 449 kts | 236° |
| 2026-05-08 11:41 | 24.37188 | 120.25086 | 29893 ft | 451 kts | 237° |
| 2026-05-08 11:41 | 24.35230 | 120.22370 | 30260 ft | 453 kts | 237° |
| 2026-05-08 11:41 | 24.33269 | 120.19654 | 30568 ft | 456 kts | 237° |
| 2026-05-08 11:41 | 24.31291 | 120.16915 | 30871 ft | 459 kts | 237° |
| 2026-05-08 11:42 | 24.29305 | 120.14166 | 31169 ft | 461 kts | 236° |
| 2026-05-08 11:42 | 24.27307 | 120.11402 | 31456 ft | 464 kts | 236° |
| 2026-05-08 11:42 | 24.25296 | 120.08623 | 31820 ft | 464 kts | 236° |
| 2026-05-08 11:42 | 24.23285 | 120.05845 | 32108 ft | 467 kts | 236° |
| 2026-05-08 11:43 | 24.21287 | 120.03083 | 32311 ft | 470 kts | 237° |
| 2026-05-08 11:43 | 24.19246 | 120.00264 | 32559 ft | 473 kts | 236° |
| 2026-05-08 11:43 | 24.17197 | 119.97437 | 32829 ft | 475 kts | 236° |
| 2026-05-08 11:43 | 24.15135 | 119.94593 | 33086 ft | 477 kts | 236° |
| 2026-05-08 11:44 | 24.13067 | 119.91744 | 33333 ft | 479 kts | 236° |
| 2026-05-08 11:44 | 24.10988 | 119.88881 | 33604 ft | 480 kts | 236° |
| 2026-05-08 11:44 | 24.08915 | 119.86029 | 33968 ft | 479 kts | 236° |
| 2026-05-08 11:44 | 24.06842 | 119.83180 | 34290 ft | 478 kts | 236° |
| 2026-05-08 11:45 | 24.04776 | 119.80342 | 34671 ft | 475 kts | 236° |
| 2026-05-08 11:45 | 24.02726 | 119.77527 | 35044 ft | 472 kts | 236° |
| 2026-05-08 11:45 | 24.00675 | 119.74711 | 35304 ft | 472 kts | 236° |
| 2026-05-08 11:45 | 23.98624 | 119.71894 | 35522 ft | 473 kts | 236° |
| 2026-05-08 11:46 | 23.96602 | 119.69119 | 35789 ft | 473 kts | 236° |
| 2026-05-08 11:46 | 23.94557 | 119.66314 | 36080 ft | 472 kts | 236° |
| 2026-05-08 11:46 | 23.92510 | 119.63509 | 36362 ft | 471 kts | 236° |
| 2026-05-08 11:46 | 23.90467 | 119.60711 | 36628 ft | 471 kts | 236° |
| 2026-05-08 11:47 | 23.88425 | 119.57916 | 36874 ft | 470 kts | 236° |
| 2026-05-08 11:47 | 23.86387 | 119.55128 | 37133 ft | 470 kts | 236° |
| 2026-05-08 11:47 | 23.84349 | 119.52342 | 37419 ft | 468 kts | 236° |
| 2026-05-08 11:47 | 23.82320 | 119.49570 | 37757 ft | 466 kts | 236° |
| 2026-05-08 11:48 | 23.80297 | 119.46807 | 37953 ft | 466 kts | 236° |
| 2026-05-08 11:48 | 23.76288 | 119.41332 | 38008 ft | 468 kts | 236° |
| 2026-05-08 11:49 | 23.72217 | 119.35782 | 38017 ft | 469 kts | 236° |
| 2026-05-08 11:49 | 23.68119 | 119.30203 | 38015 ft | 469 kts | 236° |
| 2026-05-08 11:50 | 23.64027 | 119.24638 | 38025 ft | 469 kts | 236° |
| 2026-05-08 11:50 | 23.60631 | 119.20023 | 38021 ft | 469 kts | 236° |
| 2026-05-08 11:51 | 23.55872 | 119.13565 | 38020 ft | 470 kts | 236° |
| 2026-05-08 11:51 | 23.52459 | 119.08937 | 38024 ft | 472 kts | 236° |
| 2026-05-08 11:52 | 23.48330 | 119.03344 | 38022 ft | 472 kts | 236° |
| 2026-05-08 11:52 | 23.44207 | 118.97769 | 38028 ft | 472 kts | 236° |
| 2026-05-08 11:53 | 23.40090 | 118.92205 | 38030 ft | 472 kts | 235° |
| 2026-05-08 11:53 | 23.35973 | 118.86648 | 38014 ft | 471 kts | 236° |
| 2026-05-08 11:54 | 23.31932 | 118.81089 | 38022 ft | 469 kts | 239° |
| 2026-05-08 11:54 | 23.28873 | 118.74904 | 38031 ft | 462 kts | 251° |
| 2026-05-08 11:55 | 23.26592 | 118.68382 | 38024 ft | 461 kts | 254° |
| 2026-05-08 11:55 | 23.24488 | 118.61815 | 38029 ft | 460 kts | 254° |
| 2026-05-08 11:56 | 23.22374 | 118.55250 | 38031 ft | 459 kts | 254° |
| 2026-05-08 11:56 | 23.20232 | 118.48710 | 38026 ft | 459 kts | 253° |
| 2026-05-08 11:57 | 23.18078 | 118.42183 | 38034 ft | 459 kts | 253° |
| 2026-05-08 11:57 | 23.15916 | 118.35653 | 38023 ft | 459 kts | 254° |
| 2026-05-08 11:58 | 23.13753 | 118.29124 | 38025 ft | 459 kts | 254° |
| 2026-05-08 11:58 | 23.11588 | 118.22593 | 38025 ft | 459 kts | 254° |
| 2026-05-08 11:59 | 23.08371 | 118.12914 | 38028 ft | 459 kts | 254° |
| 2026-05-08 11:59 | 23.06198 | 118.06387 | 38023 ft | 459 kts | 253° |
| 2026-05-08 12:00 | 23.04022 | 117.99861 | 38027 ft | 459 kts | 253° |
| 2026-05-08 12:00 | 23.01846 | 117.93348 | 38033 ft | 459 kts | 253° |
| 2026-05-08 12:01 | 22.99664 | 117.86824 | 38031 ft | 459 kts | 253° |
| 2026-05-08 12:01 | 22.98574 | 117.83570 | 37893 ft | 461 kts | 253° |
| 2026-05-08 12:01 | 22.97473 | 117.80282 | 37639 ft | 464 kts | 253° |
| 2026-05-08 12:02 | 22.96369 | 117.76986 | 37377 ft | 466 kts | 253° |
| 2026-05-08 12:02 | 22.95273 | 117.73722 | 37117 ft | 466 kts | 253° |
| 2026-05-08 12:02 | 22.94161 | 117.70412 | 36871 ft | 467 kts | 253° |
| 2026-05-08 12:02 | 22.93046 | 117.67095 | 36619 ft | 468 kts | 253° |
| 2026-05-08 12:03 | 22.91930 | 117.63780 | 36374 ft | 468 kts | 253° |
| 2026-05-08 12:03 | 22.90812 | 117.60461 | 36124 ft | 469 kts | 252° |
| 2026-05-08 12:03 | 22.89692 | 117.57137 | 35890 ft | 470 kts | 252° |
| 2026-05-08 12:03 | 22.88565 | 117.53796 | 35647 ft | 470 kts | 252° |
| 2026-05-08 12:04 | 22.87440 | 117.50461 | 35403 ft | 471 kts | 252° |
| 2026-05-08 12:04 | 22.86313 | 117.47126 | 35172 ft | 472 kts | 252° |
| 2026-05-08 12:04 | 22.85195 | 117.43819 | 36367 ft | 472 kts | 251° |
| 2026-05-08 12:04 | 22.84061 | 117.40472 | 34698 ft | 474 kts | 252° |
| 2026-05-08 12:05 | 22.82925 | 117.37116 | 34465 ft | 474 kts | 252° |
| 2026-05-08 12:05 | 22.81787 | 117.33759 | 34261 ft | 474 kts | 252° |
| 2026-05-08 12:05 | 22.80650 | 117.30406 | 34030 ft | 475 kts | 252° |
| 2026-05-08 12:05 | 22.79510 | 117.27045 | 33767 ft | 475 kts | 252° |
| 2026-05-08 12:06 | 22.78368 | 117.23681 | 33506 ft | 476 kts | 252° |
| 2026-05-08 12:06 | 22.77222 | 117.20307 | 33252 ft | 477 kts | 252° |
| 2026-05-08 12:06 | 22.76073 | 117.16929 | 32990 ft | 479 kts | 252° |
| 2026-05-08 12:06 | 22.74921 | 117.13546 | 32746 ft | 479 kts | 252° |
| 2026-05-08 12:07 | 22.73766 | 117.10155 | 32500 ft | 480 kts | 252° |
| 2026-05-08 12:07 | 22.72608 | 117.06760 | 32255 ft | 481 kts | 251° |
| 2026-05-08 12:07 | 22.71447 | 117.03359 | 32012 ft | 482 kts | 251° |
| 2026-05-08 12:07 | 22.70285 | 116.99955 | 31770 ft | 482 kts | 251° |
| 2026-05-08 12:08 | 22.69119 | 116.96546 | 31541 ft | 481 kts | 251° |
| 2026-05-08 12:08 | 22.67959 | 116.93155 | 31298 ft | 479 kts | 251° |
| 2026-05-08 12:08 | 22.66800 | 116.89772 | 31057 ft | 478 kts | 251° |
| 2026-05-08 12:08 | 22.65664 | 116.86455 | 30844 ft | 476 kts | 251° |
| 2026-05-08 12:09 | 22.64512 | 116.83098 | 30618 ft | 474 kts | 251° |
| 2026-05-08 12:09 | 22.63369 | 116.79766 | 30387 ft | 472 kts | 251° |
| 2026-05-08 12:09 | 22.62224 | 116.76432 | 30153 ft | 471 kts | 251° |
| 2026-05-08 12:09 | 22.61121 | 116.73222 | 29907 ft | 473 kts | 251° |
| 2026-05-08 12:10 | 22.59929 | 116.69754 | 29625 ft | 474 kts | 251° |
| 2026-05-08 12:10 | 22.58783 | 116.66424 | 29353 ft | 472 kts | 251° |
| 2026-05-08 12:10 | 22.57635 | 116.63093 | 29100 ft | 469 kts | 251° |
| 2026-05-08 12:10 | 22.56497 | 116.59793 | 28831 ft | 467 kts | 251° |
| 2026-05-08 12:11 | 22.55373 | 116.56534 | 28589 ft | 467 kts | 251° |
| 2026-05-08 12:11 | 22.54243 | 116.53259 | 28326 ft | 463 kts | 251° |
| 2026-05-08 12:11 | 22.53118 | 116.50004 | 28076 ft | 460 kts | 251° |
| 2026-05-08 12:11 | 22.51996 | 116.46760 | 27819 ft | 458 kts | 251° |
| 2026-05-08 12:12 | 22.50880 | 116.43536 | 27581 ft | 456 kts | 251° |
| 2026-05-08 12:12 | 22.49784 | 116.40375 | 27382 ft | 443 kts | 251° |
| 2026-05-08 12:12 | 22.48714 | 116.37293 | 27165 ft | 431 kts | 251° |
| 2026-05-08 12:12 | 22.47661 | 116.34257 | 26935 ft | 436 kts | 251° |
| 2026-05-08 12:13 | 22.46581 | 116.31134 | 26802 ft | 450 kts | 251° |
| 2026-05-08 12:13 | 22.45482 | 116.27959 | 26562 ft | 451 kts | 251° |
| 2026-05-08 12:13 | 22.44380 | 116.24786 | 26320 ft | 450 kts | 251° |
| 2026-05-08 12:13 | 22.43278 | 116.21621 | 26086 ft | 449 kts | 251° |
| 2026-05-08 12:14 | 22.42194 | 116.18509 | 25849 ft | 449 kts | 250° |
| 2026-05-08 12:14 | 22.41094 | 116.15350 | 25620 ft | 448 kts | 251° |
| 2026-05-08 12:14 | 22.39998 | 116.12209 | 25386 ft | 446 kts | 251° |
| 2026-05-08 12:14 | 22.38904 | 116.09071 | 25152 ft | 444 kts | 251° |
| 2026-05-08 12:15 | 22.37817 | 116.05957 | 24940 ft | 443 kts | 251° |
| 2026-05-08 12:15 | 22.36730 | 116.02838 | 24731 ft | 443 kts | 251° |
| 2026-05-08 12:15 | 22.35640 | 115.99719 | 24497 ft | 441 kts | 251° |
| 2026-05-08 12:15 | 22.34557 | 115.96627 | 24268 ft | 438 kts | 251° |
| 2026-05-08 12:16 | 22.33479 | 115.93550 | 24056 ft | 438 kts | 251° |
| 2026-05-08 12:16 | 22.32403 | 115.90479 | 23838 ft | 438 kts | 251° |
| 2026-05-08 12:16 | 22.31326 | 115.87406 | 23617 ft | 437 kts | 251° |
| 2026-05-08 12:16 | 22.30319 | 115.84317 | 23357 ft | 433 kts | 256° |
| 2026-05-08 12:17 | 22.29713 | 115.81195 | 23114 ft | 430 kts | 264° |
| 2026-05-08 12:17 | 22.29428 | 115.77989 | 22868 ft | 429 kts | 266° |
| 2026-05-08 12:17 | 22.29253 | 115.74780 | 22605 ft | 427 kts | 268° |
| 2026-05-08 12:17 | 22.29135 | 115.71587 | 22354 ft | 425 kts | 269° |
| 2026-05-08 12:18 | 22.29039 | 115.68410 | 22108 ft | 421 kts | 269° |
| 2026-05-08 12:18 | 22.28947 | 115.65250 | 21862 ft | 420 kts | 269° |
| 2026-05-08 12:18 | 22.28849 | 115.62101 | 21618 ft | 420 kts | 269° |
| 2026-05-08 12:18 | 22.28743 | 115.58947 | 21375 ft | 420 kts | 268° |
| 2026-05-08 12:19 | 22.28631 | 115.55804 | 21137 ft | 419 kts | 268° |
| 2026-05-08 12:19 | 22.28515 | 115.52665 | 20895 ft | 417 kts | 268° |
| 2026-05-08 12:19 | 22.28396 | 115.49536 | 20651 ft | 415 kts | 268° |
| 2026-05-08 12:19 | 22.28276 | 115.46415 | 20414 ft | 414 kts | 268° |
| 2026-05-08 12:20 | 22.28156 | 115.43318 | 20181 ft | 412 kts | 268° |
| 2026-05-08 12:20 | 22.28037 | 115.40232 | 19951 ft | 411 kts | 268° |
| 2026-05-08 12:20 | 22.27917 | 115.37150 | 19729 ft | 410 kts | 268° |
| 2026-05-08 12:20 | 22.27799 | 115.34121 | 19492 ft | 408 kts | 268° |
| 2026-05-08 12:21 | 22.27679 | 115.31053 | 19270 ft | 409 kts | 267° |
| 2026-05-08 12:21 | 22.27559 | 115.27987 | 19072 ft | 406 kts | 267° |
| 2026-05-08 12:21 | 22.27442 | 115.24999 | 18951 ft | 391 kts | 267° |
| 2026-05-08 12:21 | 22.27328 | 115.22125 | 18860 ft | 375 kts | 267° |
| 2026-05-08 12:22 | 22.27219 | 115.19358 | 18759 ft | 362 kts | 267° |
| 2026-05-08 12:22 | 22.27110 | 115.16638 | 18629 ft | 363 kts | 267° |
| 2026-05-08 12:22 | 22.26999 | 115.13902 | 18406 ft | 364 kts | 266° |
| 2026-05-08 12:22 | 22.26886 | 115.11167 | 18173 ft | 363 kts | 266° |
| 2026-05-08 12:23 | 22.26774 | 115.08447 | 17920 ft | 362 kts | 266° |
| 2026-05-08 12:23 | 22.26664 | 115.05769 | 17670 ft | 360 kts | 267° |
| 2026-05-08 12:23 | 22.26553 | 115.03064 | 17418 ft | 359 kts | 267° |
| 2026-05-08 12:23 | 22.26443 | 115.00371 | 17168 ft | 358 kts | 267° |
| 2026-05-08 12:24 | 22.26333 | 114.97696 | 16915 ft | 356 kts | 267° |
| 2026-05-08 12:24 | 22.26222 | 114.95026 | 16672 ft | 355 kts | 267° |
| 2026-05-08 12:24 | 22.26112 | 114.92370 | 16428 ft | 354 kts | 267° |
| 2026-05-08 12:24 | 22.26001 | 114.89722 | 16184 ft | 352 kts | 267° |
| 2026-05-08 12:25 | 22.25892 | 114.87112 | 15956 ft | 351 kts | 267° |
| 2026-05-08 12:25 | 22.25779 | 114.84448 | 15715 ft | 350 kts | 267° |
| 2026-05-08 12:25 | 22.25668 | 114.81824 | 15480 ft | 349 kts | 267° |
| 2026-05-08 12:25 | 22.25559 | 114.79239 | 15248 ft | 348 kts | 268° |
| 2026-05-08 12:26 | 22.25448 | 114.76632 | 15023 ft | 347 kts | 268° |
| 2026-05-08 12:26 | 22.25337 | 114.74033 | 14785 ft | 346 kts | 268° |
| 2026-05-08 12:26 | 22.25225 | 114.71435 | 14550 ft | 345 kts | 268° |
| 2026-05-08 12:26 | 22.25114 | 114.68851 | 14331 ft | 344 kts | 268° |
| 2026-05-08 12:27 | 22.25002 | 114.66277 | 14115 ft | 343 kts | 268° |
| 2026-05-08 12:27 | 22.24891 | 114.63704 | 13882 ft | 342 kts | 268° |
| 2026-05-08 12:27 | 22.24780 | 114.61176 | 13718 ft | 331 kts | 268° |
| 2026-05-08 12:27 | 22.24673 | 114.58734 | 13480 ft | 321 kts | 268° |
| 2026-05-08 12:28 | 22.24569 | 114.56355 | 13239 ft | 314 kts | 268° |
| 2026-05-08 12:28 | 22.24467 | 114.54031 | 12993 ft | 314 kts | 268° |
| 2026-05-08 12:28 | 22.24364 | 114.51684 | 12748 ft | 313 kts | 268° |
| 2026-05-08 12:28 | 22.24261 | 114.49337 | 12500 ft | 312 kts | 268° |
| 2026-05-08 12:29 | 22.24157 | 114.46996 | 12252 ft | 311 kts | 268° |
| 2026-05-08 12:29 | 22.24054 | 114.44670 | 12009 ft | 310 kts | 268° |
| 2026-05-08 12:29 | 22.23950 | 114.42344 | 11762 ft | 309 kts | 268° |
| 2026-05-08 12:29 | 22.23846 | 114.40030 | 11524 ft | 308 kts | 268° |
| 2026-05-08 12:30 | 22.23742 | 114.37717 | 11289 ft | 308 kts | 268° |
| 2026-05-08 12:30 | 22.23638 | 114.35413 | 11061 ft | 307 kts | 268° |
| 2026-05-08 12:30 | 22.23534 | 114.33108 | 10820 ft | 307 kts | 268° |
| 2026-05-08 12:30 | 22.23430 | 114.30814 | 10582 ft | 306 kts | 268° |
| 2026-05-08 12:31 | 22.23326 | 114.28539 | 10408 ft | 299 kts | 268° |
| 2026-05-08 12:31 | 22.23226 | 114.26359 | 10249 ft | 289 kts | 268° |
| 2026-05-08 12:31 | 22.23130 | 114.24280 | 10047 ft | 283 kts | 268° |
| 2026-05-08 12:31 | 22.23032 | 114.22153 | 9727 ft | 284 kts | 268° |
| 2026-05-08 12:32 | 22.22933 | 114.19996 | 9374 ft | 289 kts | 268° |
| 2026-05-08 12:32 | 22.22833 | 114.17829 | 9051 ft | 289 kts | 268° |
| 2026-05-08 12:32 | 22.22733 | 114.15663 | 8721 ft | 288 kts | 267° |
| 2026-05-08 12:32 | 22.22633 | 114.13510 | 8392 ft | 287 kts | 268° |
| 2026-05-08 12:33 | 22.22533 | 114.11366 | 8070 ft | 285 kts | 267° |
| 2026-05-08 12:33 | 22.22433 | 114.09229 | 7734 ft | 284 kts | 267° |
| 2026-05-08 12:33 | 22.22333 | 114.07103 | 7423 ft | 283 kts | 268° |
| 2026-05-08 12:33 | 22.22236 | 114.05032 | 7178 ft | 277 kts | 267° |
| 2026-05-08 12:34 | 22.22141 | 114.03013 | 7063 ft | 264 kts | 267° |
| 2026-05-08 12:34 | 22.22050 | 114.01066 | 6929 ft | 260 kts | 267° |
| 2026-05-08 12:34 | 22.21954 | 113.99046 | 6844 ft | 277 kts | 267° |
| 2026-05-08 12:34 | 22.21857 | 113.96998 | 6713 ft | 277 kts | 267° |
| 2026-05-08 12:35 | 22.21888 | 113.94909 | 6481 ft | 279 kts | 276° |
| 2026-05-08 12:35 | 22.22338 | 113.92881 | 6238 ft | 275 kts | 291° |
| 2026-05-08 12:35 | 22.23247 | 113.91123 | 6123 ft | 262 kts | 308° |
| 2026-05-08 12:35 | 22.24517 | 113.89778 | 6005 ft | 250 kts | 324° |
| 2026-05-08 12:36 | 22.26020 | 113.88906 | 5855 ft | 242 kts | 340° |
| 2026-05-08 12:36 | 22.27623 | 113.88523 | 5719 ft | 231 kts | 355° |
| 2026-05-08 12:36 | 22.29192 | 113.88601 | 5595 ft | 221 kts | 10° |
| 2026-05-08 12:36 | 22.30623 | 113.89066 | 5468 ft | 210 kts | 24° |
| 2026-05-08 12:37 | 22.31861 | 113.89841 | 5301 ft | 202 kts | 37° |
| 2026-05-08 12:37 | 22.32882 | 113.90864 | 5046 ft | 199 kts | 50° |
| 2026-05-08 12:37 | 22.33673 | 113.92094 | 4674 ft | 204 kts | 62° |
| 2026-05-08 12:37 | 22.34211 | 113.93545 | 4243 ft | 209 kts | 75° |
| 2026-05-08 12:38 | 22.34415 | 113.95073 | 4062 ft | 202 kts | 88° |
| 2026-05-08 12:38 | 22.34309 | 113.96523 | 3989 ft | 189 kts | 100° |
| 2026-05-08 12:38 | 22.33949 | 113.97876 | 3679 ft | 189 kts | 110° |
| 2026-05-08 12:38 | 22.33320 | 113.99182 | 3143 ft | 203 kts | 122° |
| 2026-05-08 12:39 | 22.32737 | 113.99990 | 2798 ft | 210 kts | 131° |
| 2026-05-08 12:39 | 22.31225 | 114.01422 | 2180 ft | 226 kts | 139° |
| 2026-05-08 12:39 | 22.30064 | 114.02626 | 1998 ft | 234 kts | 130° |
| 2026-05-08 12:39 | 22.29404 | 114.03553 | 1987 ft | 234 kts | 122° |
| 2026-05-08 12:40 | 22.28686 | 114.05115 | 2010 ft | 231 kts | 108° |
| 2026-05-08 12:40 | 22.28380 | 114.06789 | 2126 ft | 229 kts | 92° |
| 2026-05-08 12:40 | 22.28488 | 114.08538 | 2060 ft | 230 kts | 77° |
| 2026-05-08 12:40 | 22.29038 | 114.10127 | 2030 ft | 226 kts | 60° |
| 2026-05-08 12:41 | 22.29991 | 114.11447 | 2023 ft | 221 kts | 43° |
| 2026-05-08 12:41 | 22.31202 | 114.12336 | 2032 ft | 200 kts | 25° |
| 2026-05-08 12:41 | 22.32314 | 114.12684 | 1973 ft | 180 kts | 7° |
| 2026-05-08 12:41 | 22.33517 | 114.12607 | 1796 ft | 164 kts | 347° |
| 2026-05-08 12:42 | 22.34503 | 114.12790 | 1701 ft | 144 kts | 40° |
| 2026-05-08 12:42 | 22.34837 | 114.13810 | 1773 ft | 155 kts | 83° |
| 2026-05-08 12:42 | 22.34876 | 114.14993 | 1446 ft | 161 kts | 91° |
| 2026-05-08 12:42 | 22.34657 | 114.16141 | 1182 ft | 154 kts | 110° |
| 2026-05-08 12:43 | 22.34154 | 114.17144 | 850 ft | 152 kts | 121° |
| 2026-05-08 12:43 | 22.33541 | 114.18068 | 563 ft | 149 kts | 130° |
| 2026-05-08 12:43 | 22.32850 | 114.18896 | 271 ft | 146 kts | 134° |
| 2026-05-08 12:43 | 22.32164 | 114.19674 | 59 ft | 138 kts | 134° |
| 2026-05-08 12:44 | 22.31553 | 114.20355 | 37 ft | 99 kts | 135° |
| 2026-05-08 12:44 | 22.31294 | 114.20637 | 36 ft | 23 kts | 130° |
| 2026-05-08 12:44 | 22.31281 | 114.20655 | 35 ft | 0 kts | 128° |
| 2026-05-08 12:44 | 22.31277 | 114.20664 | 37 ft | 8 kts | 115° |
| 2026-05-08 12:45 | 22.31294 | 114.20732 | 36 ft | 1 kts | 21° |
| 2026-05-08 12:45 | 22.31302 | 114.20732 | 36 ft | 4 kts | 9° |
| 2026-05-08 12:45 | 22.31367 | 114.20702 | 36 ft | 16 kts | 326° |
| 2026-05-08 12:46 | 22.31449 | 114.20617 | 36 ft | 17 kts | 314° |
| 2026-05-08 12:46 | 22.31532 | 114.20524 | 36 ft | 18 kts | 314° |
| 2026-05-08 12:46 | 22.31621 | 114.20424 | 36 ft | 19 kts | 314° |
| 2026-05-08 12:46 | 22.31718 | 114.20314 | 37 ft | 21 kts | 313° |
| 2026-05-08 12:47 | 22.31823 | 114.20197 | 37 ft | 22 kts | 314° |
| 2026-05-08 12:47 | 22.31934 | 114.20072 | 37 ft | 23 kts | 313° |
| 2026-05-08 12:47 | 22.32046 | 114.19942 | 37 ft | 24 kts | 313° |
| 2026-05-08 12:47 | 22.32168 | 114.19808 | 37 ft | 25 kts | 316° |
| 2026-05-08 12:48 | 22.32293 | 114.19676 | 37 ft | 26 kts | 317° |
| 2026-05-08 12:48 | 22.32424 | 114.19544 | 37 ft | 27 kts | 315° |
| 2026-05-08 12:48 | 22.32568 | 114.19426 | 37 ft | 21 kts | 358° |
| 2026-05-08 12:48 | 22.32671 | 114.19492 | 37 ft | 16 kts | 29° |
| 2026-05-08 12:49 | 22.32735 | 114.19458 | 37 ft | 10 kts | 315° |
| 2026-05-08 12:49 | 22.32750 | 114.19442 | 37 ft | 0 kts | 314° |